createdAt,value
2022-09-28T00:03:49.218Z,9.72
2022-09-28T00:07:50.517Z,9.73
2022-09-28T00:11:53.698Z,9.67
2022-09-28T00:16:05.924Z,9.70
2022-09-28T00:20:07.371Z,9.73
2022-09-28T00:24:18.941Z,9.74
2022-09-28T00:28:20.253Z,9.74
2022-09-28T00:32:24.527Z,9.71
2022-09-28T00:36:29.457Z,9.69
2022-09-28T00:40:30.713Z,9.67
2022-09-28T00:44:36.142Z,9.63
2022-09-28T00:48:39.441Z,9.66
2022-09-28T00:52:59.949Z,9.67
2022-09-28T00:57:08.878Z,9.68
2022-09-28T01:01:10.383Z,9.73
2022-09-28T01:05:12.869Z,9.74
2022-09-28T01:09:15.158Z,9.74
2022-09-28T01:13:17.671Z,9.75
2022-09-28T01:17:26.657Z,9.73
2022-09-28T01:21:28.065Z,9.76
2022-09-28T01:25:35.989Z,9.77
2022-09-28T01:29:50.884Z,9.80
2022-09-28T01:33:55.695Z,9.83
2022-09-28T01:38:01.492Z,9.87
2022-09-28T01:42:05.594Z,9.89
2022-09-28T01:46:18.932Z,9.89
2022-09-28T01:50:41.715Z,9.92
2022-09-28T01:54:54.445Z,9.93
2022-09-28T01:59:06.960Z,9.94
2022-09-28T02:03:20.718Z,9.96
2022-09-28T02:07:42.454Z,9.96
2022-09-28T02:11:47.862Z,9.96
2022-09-28T02:15:51.731Z,9.96
2022-09-28T02:19:59.946Z,9.94
2022-09-28T02:24:11.466Z,9.92
2022-09-28T02:28:15.753Z,9.88
2022-09-28T02:32:25.288Z,9.89
2022-09-28T02:36:27.437Z,9.90
2022-09-28T02:40:38.022Z,9.90
2022-09-28T02:45:00.937Z,9.90
2022-09-28T02:49:20.436Z,9.90
2022-09-28T02:53:48.981Z,9.88
2022-09-28T02:57:50.228Z,9.85
2022-09-28T03:02:03.850Z,9.84
2022-09-28T03:06:20.953Z,9.87
2022-09-28T03:10:25.504Z,9.86
2022-09-28T03:14:26.874Z,9.87
2022-09-28T03:18:28.309Z,9.87
2022-09-28T03:22:36.088Z,9.86
2022-09-28T03:26:40.309Z,9.87
2022-09-28T03:30:43.491Z,9.92
2022-09-28T03:34:44.814Z,9.94
2022-09-28T03:38:46.081Z,9.95
2022-09-28T03:42:47.400Z,9.97
2022-09-28T03:46:48.659Z,9.98
2022-09-28T03:50:52.667Z,9.95
2022-09-28T03:55:00.000Z,9.95
2022-09-28T03:59:02.740Z,9.96
2022-09-28T04:03:11.027Z,9.98
2022-09-28T04:07:12.271Z,9.99
2022-09-28T04:11:13.553Z,10.00
2022-09-28T04:15:14.980Z,9.96
2022-09-28T04:19:16.284Z,9.94
2022-09-28T04:23:17.689Z,9.91
2022-09-28T04:27:37.758Z,9.89
2022-09-28T04:31:40.950Z,9.89
2022-09-28T04:35:42.314Z,9.88
2022-09-28T04:39:49.977Z,9.86
2022-09-28T04:43:51.322Z,9.85
2022-09-28T04:47:52.924Z,9.86
2022-09-28T04:51:54.236Z,9.88
2022-09-28T04:56:05.997Z,9.89
2022-09-28T05:00:15.011Z,9.85
2022-09-28T05:04:16.323Z,9.76
2022-09-28T05:08:18.153Z,9.70
2022-09-28T05:12:19.420Z,9.67
2022-09-28T05:16:20.729Z,9.61
2022-09-28T05:20:22.241Z,9.54
2022-09-28T05:24:23.985Z,9.48
2022-09-28T05:28:27.109Z,9.38
2022-09-28T05:32:28.361Z,9.33
2022-09-28T05:36:30.191Z,9.24
2022-09-28T05:40:31.649Z,9.17
2022-09-28T05:44:39.052Z,9.10
2022-09-28T05:48:40.305Z,9.03
2022-09-28T05:52:42.105Z,8.94
2022-09-28T05:56:43.392Z,8.91
2022-09-28T06:00:45.089Z,8.89
2022-09-28T06:04:55.047Z,8.91
2022-09-28T06:08:56.344Z,8.89
2022-09-28T06:13:05.023Z,8.94
2022-09-28T06:17:06.687Z,8.99
2022-09-28T06:21:10.945Z,9.00
2022-09-28T06:25:12.221Z,9.00
2022-09-28T06:29:19.961Z,8.97
2022-09-28T06:33:21.964Z,9.04
2022-09-28T06:37:32.890Z,9.12
2022-09-28T06:41:41.104Z,9.20
2022-09-28T06:45:43.133Z,9.28
2022-09-28T06:49:47.649Z,9.37
2022-09-28T06:53:48.977Z,9.45
2022-09-28T06:58:00.391Z,9.52
2022-09-28T07:02:01.703Z,9.57
2022-09-28T07:06:04.372Z,9.63
2022-09-28T07:10:05.971Z,9.75
2022-09-28T07:14:33.246Z,9.85
2022-09-28T07:18:35.302Z,9.98
2022-09-28T07:22:43.129Z,10.18
2022-09-28T07:26:45.394Z,10.24
2022-09-28T07:30:53.259Z,10.24
2022-09-28T07:34:58.871Z,10.29
2022-09-28T07:39:01.377Z,10.32
2022-09-28T07:43:06.232Z,10.39
2022-09-28T07:47:07.637Z,10.46
2022-09-28T07:51:09.481Z,10.73
2022-09-28T07:55:10.875Z,10.91
2022-09-28T07:59:12.377Z,11.03
2022-09-28T08:03:24.081Z,11.50
2022-09-28T08:07:25.623Z,11.84
2022-09-28T08:11:27.164Z,11.86
2022-09-28T08:15:30.520Z,12.14
2022-09-28T08:19:57.335Z,12.49
2022-09-28T08:23:58.776Z,12.22
2022-09-28T08:28:00.708Z,12.22
2022-09-28T08:32:02.407Z,12.44
2022-09-28T08:36:04.625Z,12.86
2022-09-28T08:40:06.539Z,12.89
2022-09-28T08:44:24.513Z,12.70
2022-09-28T08:48:48.565Z,12.72
2022-09-28T08:53:03.664Z,12.85
2022-09-28T08:57:13.941Z,12.79
2022-09-28T09:01:18.879Z,12.62
2022-09-28T09:05:22.911Z,12.58
2022-09-28T09:09:40.386Z,12.39
2022-09-28T09:13:47.449Z,12.48
2022-09-28T09:18:02.104Z,12.70
2022-09-28T09:22:27.617Z,12.83
2022-09-28T09:26:45.205Z,12.84
2022-09-28T09:31:01.719Z,12.68
2022-09-28T09:35:13.480Z,12.56
2022-09-28T09:39:24.203Z,12.96
2022-09-28T09:43:31.542Z,13.47
2022-09-28T09:47:42.872Z,13.93
2022-09-28T09:51:44.148Z,14.28
2022-09-28T09:55:46.489Z,14.50
2022-09-28T09:59:55.137Z,14.52
2022-09-28T10:03:59.139Z,14.61
2022-09-28T10:08:00.516Z,14.55
2022-09-28T10:12:01.935Z,14.70
2022-09-28T10:16:12.375Z,14.88
2022-09-28T10:20:15.845Z,14.78
2022-09-28T10:24:23.573Z,14.52
2022-09-28T10:28:54.697Z,14.15
2022-09-28T10:32:59.499Z,14.36
2022-09-28T10:37:10.412Z,14.70
2022-09-28T10:41:13.839Z,14.72
2022-09-28T10:45:23.157Z,14.41
2022-09-28T10:49:26.252Z,14.01
2022-09-28T10:53:29.431Z,13.64
2022-09-28T10:57:36.708Z,13.36
2022-09-28T11:01:38.498Z,13.18
2022-09-28T11:05:40.640Z,13.17
2022-09-28T11:09:45.077Z,13.37
2022-09-28T11:13:49.969Z,13.42
2022-09-28T11:17:54.330Z,13.35
2022-09-28T11:22:03.119Z,13.26
2022-09-28T11:26:07.093Z,13.12
2022-09-28T11:30:23.006Z,13.24
2022-09-28T11:34:47.795Z,13.70
2022-09-28T11:39:04.261Z,13.94
2022-09-28T11:43:18.099Z,14.23
2022-09-28T11:47:49.332Z,14.29
2022-09-28T11:51:53.150Z,13.94
2022-09-28T11:56:08.861Z,13.89
2022-09-28T12:00:15.594Z,13.86
2022-09-28T12:04:21.040Z,14.32
2022-09-28T12:08:25.460Z,14.67
2022-09-28T12:12:39.567Z,14.96
2022-09-28T12:17:06.933Z,15.44
2022-09-28T12:21:29.648Z,15.95
2022-09-28T12:25:37.367Z,16.32
2022-09-28T12:29:49.979Z,16.48
2022-09-28T12:33:52.695Z,16.65
2022-09-28T12:38:08.934Z,16.74
2022-09-28T12:42:11.720Z,16.32
2022-09-28T12:46:39.962Z,15.95
2022-09-28T12:50:47.523Z,16.11
2022-09-28T12:55:13.258Z,16.25
2022-09-28T12:59:25.691Z,16.07
2022-09-28T13:03:52.228Z,16.27
2022-09-28T13:08:06.240Z,16.33
2022-09-28T13:12:15.666Z,16.08
2022-09-28T13:16:27.252Z,15.99
2022-09-28T13:20:40.052Z,15.98
2022-09-28T13:24:44.790Z,15.74
2022-09-28T13:28:47.369Z,15.69
2022-09-28T13:32:56.403Z,15.35
2022-09-28T13:37:10.084Z,15.03
2022-09-28T13:41:13.534Z,14.81
2022-09-28T13:45:24.337Z,14.98
2022-09-28T13:49:48.280Z,15.28
2022-09-28T13:54:05.462Z,15.29
2022-09-28T13:58:16.572Z,15.07
2022-09-28T14:02:26.967Z,15.01
2022-09-28T14:06:30.601Z,14.96
2022-09-28T14:10:58.322Z,14.84
2022-09-28T14:15:00.274Z,15.20
2022-09-28T14:19:20.609Z,15.39
2022-09-28T14:23:52.716Z,15.62
2022-09-28T14:28:14.757Z,15.72
2022-09-28T14:32:16.345Z,15.84
2022-09-28T14:37:12.467Z,16.02
2022-09-28T14:41:20.285Z,16.33
2022-09-28T14:45:41.334Z,16.47
2022-09-28T14:49:43.856Z,16.25
2022-09-28T14:53:46.641Z,16.09
2022-09-28T14:57:53.081Z,16.20
2022-09-28T15:02:00.732Z,16.31
2022-09-28T15:06:08.673Z,16.53
2022-09-28T15:10:27.754Z,16.52
2022-09-28T15:14:33.817Z,16.06
2022-09-28T15:18:55.772Z,15.73
2022-09-28T15:22:59.227Z,15.39
2022-09-28T15:27:14.274Z,15.17
2022-09-28T15:31:18.233Z,14.95
2022-09-28T15:35:23.633Z,14.96
2022-09-28T15:39:41.987Z,14.95
2022-09-28T15:43:47.515Z,15.00
2022-09-28T15:47:50.289Z,15.84
2022-09-28T15:51:54.480Z,16.09
2022-09-28T15:56:00.480Z,16.38
2022-09-28T16:00:04.586Z,17.18
2022-09-28T16:04:25.176Z,17.91
2022-09-28T16:08:35.900Z,20.13
2022-09-28T16:12:37.173Z,21.97
2022-09-28T16:16:51.832Z,22.86
2022-09-28T16:20:57.837Z,21.75
2022-09-28T16:25:01.762Z,19.36
2022-09-28T16:29:08.900Z,17.72
2022-09-28T16:33:30.403Z,16.48
2022-09-28T16:37:40.001Z,15.63
2022-09-28T16:41:44.419Z,15.04
2022-09-28T16:45:46.181Z,14.59
2022-09-28T16:49:48.060Z,14.19
2022-09-28T16:54:08.245Z,13.83
2022-09-28T16:58:09.760Z,13.55
2022-09-28T17:06:53.412Z,13.06
2022-09-28T17:11:13.887Z,12.86
2022-09-28T17:15:26.637Z,12.67
2022-09-28T17:19:29.849Z,12.48
2022-09-28T17:23:31.107Z,12.26
2022-09-28T17:27:32.373Z,12.06
2022-09-28T17:31:33.645Z,11.89
2022-09-28T17:35:43.415Z,11.72
2022-09-28T17:39:51.460Z,11.57
2022-09-28T17:43:52.750Z,11.41
2022-09-28T17:47:54.820Z,11.22
2022-09-28T17:51:56.218Z,11.00
2022-09-28T17:55:57.501Z,10.84
2022-09-28T17:59:58.811Z,10.65
2022-09-28T18:04:02.265Z,10.54
2022-09-28T18:08:12.199Z,10.44
2022-09-28T18:12:14.574Z,10.35
2022-09-28T18:16:16.901Z,10.24
2022-09-28T18:20:19.176Z,10.18
2022-09-28T18:24:21.017Z,10.07
2022-09-28T18:28:23.279Z,10.01
2022-09-28T18:32:24.908Z,9.98
2022-09-28T18:36:30.473Z,9.92
2022-09-28T18:40:33.520Z,9.83
2022-09-28T18:44:35.464Z,9.73
2022-09-28T18:48:44.137Z,9.58
2022-09-28T18:52:47.390Z,9.53
2022-09-28T18:56:50.207Z,9.42
2022-09-28T19:00:51.793Z,9.34
2022-09-28T19:04:53.143Z,9.26
2022-09-28T19:09:02.545Z,9.12
2022-09-28T19:13:03.945Z,9.04
2022-09-28T19:17:05.697Z,8.96
2022-09-28T19:21:08.339Z,8.90
2022-09-28T19:25:09.893Z,8.76
2022-09-28T19:29:11.268Z,8.69
2022-09-28T19:33:19.697Z,8.64
2022-09-28T19:37:20.991Z,8.62
2022-09-28T19:41:44.370Z,8.53
2022-09-28T19:45:46.821Z,8.46
2022-09-28T19:49:49.022Z,8.44
2022-09-28T19:53:50.435Z,8.39
2022-09-28T19:57:52.015Z,8.29
2022-09-28T20:02:02.835Z,8.23
2022-09-28T20:06:04.448Z,8.15
2022-09-28T20:10:06.134Z,8.09
2022-09-28T20:14:09.740Z,8.06
2022-09-28T20:18:12.413Z,8.03
2022-09-28T20:22:13.772Z,7.98
2022-09-28T20:26:15.449Z,7.91
2022-09-28T20:30:23.629Z,7.83
2022-09-28T20:34:25.086Z,7.77
2022-09-28T20:38:26.321Z,7.73
2022-09-28T20:42:34.911Z,7.68
2022-09-28T20:46:36.877Z,7.66
2022-09-28T20:50:38.276Z,7.62
2022-09-28T20:54:39.577Z,7.56
2022-09-28T20:58:40.889Z,7.46
2022-09-28T21:02:48.498Z,7.39
2022-09-28T21:06:49.823Z,7.30
2022-09-28T21:10:54.738Z,7.24
2022-09-28T21:14:56.166Z,7.19
2022-09-28T21:19:04.217Z,7.08
2022-09-28T21:23:05.500Z,7.02
2022-09-28T21:27:06.821Z,6.97
2022-09-28T21:31:10.308Z,7.02
2022-09-28T21:35:11.780Z,7.01
2022-09-28T21:39:13.846Z,7.03
2022-09-28T21:43:21.692Z,6.95
2022-09-28T21:47:23.014Z,6.84
2022-09-28T21:51:24.513Z,6.85
2022-09-28T21:55:25.802Z,6.81
2022-09-28T21:59:27.486Z,6.91
2022-09-28T22:03:35.518Z,7.00
2022-09-28T22:07:38.169Z,7.03
2022-09-28T22:11:45.515Z,6.98
2022-09-28T22:15:51.963Z,6.93
2022-09-28T22:19:53.349Z,6.83
2022-09-28T22:23:58.408Z,6.76
2022-09-28T22:27:59.820Z,6.68
2022-09-28T22:32:03.107Z,6.60
2022-09-28T22:36:04.603Z,6.57
2022-09-28T22:40:12.573Z,6.55
2022-09-28T22:44:20.599Z,6.45
2022-09-28T22:48:21.860Z,6.38
2022-09-28T22:52:29.809Z,6.35
2022-09-28T22:56:37.747Z,6.28
2022-09-28T23:00:39.081Z,6.18
2022-09-28T23:04:40.359Z,6.04
2022-09-28T23:08:42.116Z,5.94
2022-09-28T23:12:43.620Z,5.90
2022-09-28T23:16:44.972Z,5.90
2022-09-28T23:20:52.221Z,5.93
2022-09-28T23:24:59.715Z,5.89
2022-09-28T23:29:07.532Z,5.81
2022-09-28T23:33:15.628Z,5.73
2022-09-28T23:37:16.933Z,5.71
2022-09-28T23:41:25.571Z,5.69
2022-09-28T23:45:27.264Z,5.59
2022-09-28T23:49:29.560Z,5.49
2022-09-28T23:53:32.393Z,5.44
2022-09-28T23:57:33.894Z,5.43
